createdAt,value
2018-01-21T00:02:02.705Z,7.50
2018-01-21T00:04:30.390Z,6.80
2018-01-21T00:06:58.177Z,7.87
2018-01-21T00:09:25.913Z,7.47
2018-01-21T00:11:54.320Z,8.33
2018-01-21T00:14:23.620Z,8.70
2018-01-21T00:16:52.291Z,8.30
2018-01-21T00:19:24.828Z,7.20
2018-01-21T00:21:55.950Z,8.10
2018-01-21T00:24:26.274Z,7.50
2018-01-21T00:26:54.756Z,7.30
2018-01-21T00:29:24.332Z,7.17
2018-01-21T00:31:52.068Z,7.83
2018-01-21T00:34:19.840Z,7.73
2018-01-21T00:36:47.533Z,7.93
2018-01-21T00:39:16.039Z,10.10
2018-01-21T00:41:43.749Z,9.73
2018-01-21T00:44:11.489Z,8.70
2018-01-21T00:46:39.306Z,7.27
2018-01-21T00:49:07.121Z,6.67
2018-01-21T00:51:36.613Z,7.50
2018-01-21T00:54:04.380Z,7.17
2018-01-21T00:56:32.309Z,6.90
2018-01-21T00:59:00.183Z,6.80
2018-01-21T01:01:27.912Z,6.80
2018-01-21T01:03:55.568Z,6.77
2018-01-21T01:06:23.237Z,7.20
2018-01-21T01:08:51.008Z,6.67
2018-01-21T01:11:18.679Z,6.20
2018-01-21T01:13:46.365Z,6.43
2018-01-21T01:16:14.011Z,6.70
2018-01-21T01:18:41.704Z,6.27
2018-01-21T01:21:09.392Z,6.30
2018-01-21T01:23:38.180Z,5.97
2018-01-21T01:26:06.097Z,6.23
2018-01-21T01:28:33.921Z,5.90
2018-01-21T01:31:04.132Z,6.23
2018-01-21T01:33:32.874Z,6.30
2018-01-21T01:36:01.074Z,6.10
2018-01-21T01:38:28.972Z,6.70
2018-01-21T01:40:57.022Z,6.73
2018-01-21T01:43:25.826Z,6.73
2018-01-21T01:45:55.332Z,7.10
2018-01-21T01:48:23.026Z,6.90
2018-01-21T01:50:50.840Z,6.67
2018-01-21T01:53:21.231Z,6.53
2018-01-21T01:55:49.296Z,6.70
2018-01-21T01:58:17.032Z,7.17
2018-01-21T02:00:44.722Z,7.90
2018-01-21T02:03:12.410Z,7.70
2018-01-21T02:05:40.287Z,7.47
2018-01-21T02:08:08.070Z,6.67
2018-01-21T02:10:35.688Z,8.40
2018-01-21T02:13:03.364Z,7.47
2018-01-21T02:15:31.120Z,7.80
2018-01-21T02:17:58.832Z,7.00
2018-01-21T02:20:28.236Z,7.13
2018-01-21T02:22:56.098Z,6.70
2018-01-21T02:25:25.576Z,7.70
2018-01-21T02:27:53.314Z,6.40
2018-01-21T02:30:21.074Z,6.47
2018-01-21T02:32:48.788Z,6.60
2018-01-21T02:35:16.440Z,7.27
2018-01-21T02:37:44.145Z,6.50
2018-01-21T02:40:11.805Z,6.23
2018-01-21T02:42:39.486Z,6.70
2018-01-21T02:45:07.988Z,6.07
2018-01-21T02:47:35.675Z,6.57
2018-01-21T02:50:03.356Z,6.07
2018-01-21T02:52:32.752Z,5.90
2018-01-21T02:55:00.502Z,6.00
2018-01-21T02:57:28.176Z,6.20
2018-01-21T02:59:55.856Z,6.10
2018-01-21T03:02:23.791Z,5.53
2018-01-21T03:04:54.141Z,5.73
2018-01-21T03:07:21.901Z,5.40
2018-01-21T03:09:49.608Z,5.77
2018-01-21T03:12:17.255Z,5.00
2018-01-21T03:14:44.968Z,5.80
2018-01-21T03:17:12.594Z,5.53
2018-01-21T03:19:40.580Z,5.60
2018-01-21T03:22:08.239Z,5.30
2018-01-21T03:24:35.912Z,5.00
2018-01-21T03:27:03.598Z,5.37
2018-01-21T03:29:31.332Z,5.27
2018-01-21T03:31:59.028Z,5.80
2018-01-21T03:34:26.726Z,5.50
2018-01-21T03:36:54.416Z,5.13
2018-01-21T03:39:22.078Z,5.20
2018-01-21T03:41:51.610Z,6.00
2018-01-21T03:44:19.298Z,5.27
2018-01-21T03:46:49.652Z,5.13
2018-01-21T03:49:17.478Z,5.17
2018-01-21T03:51:45.210Z,5.20
2018-01-21T03:54:13.606Z,5.03
2018-01-21T03:56:41.342Z,5.23
2018-01-21T03:59:09.086Z,5.07
2018-01-21T04:01:36.774Z,5.57
2018-01-21T04:04:04.493Z,5.07
2018-01-21T04:06:33.750Z,5.30
2018-01-21T04:09:01.693Z,4.50
2018-01-21T04:11:29.363Z,4.47
2018-01-21T04:13:57.122Z,4.97
2018-01-21T04:16:25.640Z,4.90
2018-01-21T04:18:53.286Z,4.60
2018-01-21T04:21:20.958Z,5.27
2018-01-21T04:23:48.653Z,5.00
2018-01-21T04:26:18.148Z,5.27
2018-01-21T04:28:45.936Z,4.50
2018-01-21T04:31:13.631Z,4.63
2018-01-21T04:33:41.289Z,4.40
2018-01-21T04:36:08.974Z,4.63
2018-01-21T04:38:38.309Z,4.40
2018-01-21T04:41:06.768Z,4.40
2018-01-21T04:43:34.428Z,4.00
2018-01-21T04:46:02.124Z,3.87
2018-01-21T04:48:29.824Z,3.83
2018-01-21T04:50:57.492Z,3.40
2018-01-21T04:53:25.202Z,3.10
2018-01-21T04:55:52.876Z,3.50
2018-01-21T04:58:22.264Z,3.43
2018-01-21T05:00:49.987Z,3.80
2018-01-21T05:03:17.628Z,3.40
2018-01-21T05:05:45.323Z,3.33
2018-01-21T05:08:14.740Z,3.17
2018-01-21T05:10:42.457Z,3.33
2018-01-21T05:13:12.032Z,3.63
2018-01-21T05:15:39.805Z,2.87
2018-01-21T05:18:07.494Z,3.20
2018-01-21T05:20:35.166Z,3.40
2018-01-21T05:23:02.866Z,3.03
2018-01-21T05:25:30.710Z,3.10
2018-01-21T05:27:58.391Z,3.13
2018-01-21T05:30:26.065Z,2.90
2018-01-21T05:32:53.744Z,3.10
2018-01-21T05:35:21.432Z,3.50
2018-01-21T05:37:49.124Z,2.70
2018-01-21T05:40:18.546Z,3.10
2018-01-21T05:42:46.510Z,3.07
2018-01-21T05:45:14.212Z,2.93
2018-01-21T05:47:43.688Z,2.60
2018-01-21T05:50:11.481Z,3.20
2018-01-21T05:52:39.169Z,2.77
2018-01-21T05:55:07.605Z,3.10
2018-01-21T05:57:35.256Z,2.70
2018-01-21T06:00:02.931Z,2.93
2018-01-21T06:02:30.600Z,2.97
2018-01-21T06:04:58.262Z,3.17
2018-01-21T06:07:25.922Z,3.37
2018-01-21T06:09:55.271Z,3.27
2018-01-21T06:12:22.996Z,3.17
2018-01-21T06:14:50.697Z,3.40
2018-01-21T06:17:20.275Z,3.40
2018-01-21T06:19:50.090Z,3.00
2018-01-21T06:22:17.781Z,2.73
2018-01-21T06:24:45.437Z,3.13
2018-01-21T06:27:13.250Z,3.13
2018-01-21T06:29:42.659Z,3.30
2018-01-21T06:32:10.371Z,2.87
2018-01-21T06:34:38.953Z,3.03
2018-01-21T06:37:09.275Z,2.97
2018-01-21T06:39:36.945Z,3.00
2018-01-21T06:42:08.585Z,3.07
2018-01-21T06:44:36.288Z,2.53
2018-01-21T06:47:04.015Z,2.67
2018-01-21T06:49:31.687Z,3.83
2018-01-21T06:51:59.424Z,3.20
2018-01-21T06:54:27.783Z,2.60
2018-01-21T06:56:55.582Z,2.83
2018-01-21T06:59:23.255Z,3.10
2018-01-21T07:01:50.898Z,3.03
2018-01-21T07:04:18.669Z,3.10
2018-01-21T07:06:46.347Z,2.40
2018-01-21T07:09:14.045Z,3.10
2018-01-21T07:11:41.763Z,3.33
2018-01-21T07:14:12.044Z,3.00
2018-01-21T07:16:39.729Z,2.40
2018-01-21T07:19:10.271Z,2.60
2018-01-21T07:21:37.965Z,2.70
2018-01-21T07:24:07.337Z,2.50
2018-01-21T07:26:35.245Z,2.70
2018-01-21T07:29:02.933Z,2.50
2018-01-21T07:31:30.668Z,2.50
2018-01-21T07:33:58.317Z,1.90
2018-01-21T07:36:25.977Z,2.20
2018-01-21T07:38:54.631Z,2.50
2018-01-21T07:41:24.917Z,2.27
2018-01-21T07:43:52.682Z,2.17
2018-01-21T07:46:20.649Z,2.70
2018-01-21T07:48:48.417Z,2.90
2018-01-21T07:51:16.837Z,2.63
2018-01-21T07:53:44.557Z,2.70
2018-01-21T07:56:13.264Z,2.83
2018-01-21T07:58:42.543Z,2.50
2018-01-21T08:01:10.245Z,2.90
2018-01-21T08:03:37.935Z,2.60
2018-01-21T08:06:05.705Z,2.87
2018-01-21T08:08:36.176Z,2.53
2018-01-21T08:11:03.899Z,2.53
2018-01-21T08:13:33.338Z,2.90
2018-01-21T08:16:01.766Z,2.70
2018-01-21T08:18:29.460Z,2.80
2018-01-21T08:20:58.974Z,2.80
2018-01-21T08:23:26.794Z,2.97
2018-01-21T08:25:56.253Z,2.80
2018-01-21T08:28:23.972Z,3.40
2018-01-21T08:30:53.460Z,2.87
2018-01-21T08:33:21.204Z,2.97
2018-01-21T08:35:54.475Z,3.17
2018-01-21T08:38:28.700Z,2.70
2018-01-21T08:41:01.827Z,3.20
2018-01-21T08:43:30.356Z,3.53
2018-01-21T08:45:58.000Z,2.80
2018-01-21T08:48:25.697Z,2.80
2018-01-21T08:50:55.189Z,3.20
2018-01-21T08:53:23.798Z,3.17
2018-01-21T08:55:51.664Z,3.57
2018-01-21T08:58:19.390Z,3.27
2018-01-21T09:00:47.132Z,3.13
2018-01-21T09:03:14.965Z,3.50
2018-01-21T09:05:42.810Z,3.93
2018-01-21T09:08:12.264Z,3.70
2018-01-21T09:10:41.692Z,3.60
2018-01-21T09:13:09.468Z,3.13
2018-01-21T09:15:37.388Z,3.83
2018-01-21T09:18:05.080Z,3.30
2018-01-21T09:20:33.636Z,3.70
2018-01-21T09:23:02.462Z,4.00
2018-01-21T09:25:32.020Z,3.57
2018-01-21T09:27:59.814Z,4.00
2018-01-21T09:30:27.766Z,4.10
2018-01-21T09:32:55.752Z,4.60
2018-01-21T09:35:23.461Z,4.30
2018-01-21T09:37:53.760Z,4.97
2018-01-21T09:40:21.506Z,3.20
2018-01-21T09:42:52.478Z,4.43
2018-01-21T09:45:27.821Z,3.80
2018-01-21T09:48:04.876Z,3.50
2018-01-21T09:50:35.482Z,3.80
2018-01-21T09:53:04.438Z,3.90
2018-01-21T09:55:32.970Z,3.83
2018-01-21T09:58:00.687Z,3.27
2018-01-21T10:00:28.360Z,3.10
2018-01-21T10:02:56.019Z,3.30
2018-01-21T10:05:27.583Z,3.47
2018-01-21T10:07:58.096Z,3.27
2018-01-21T10:10:25.868Z,3.10
2018-01-21T10:12:53.601Z,3.67
2018-01-21T10:15:21.267Z,2.50
2018-01-21T10:17:49.343Z,3.30
2018-01-21T10:20:18.429Z,3.40
2018-01-21T10:22:46.071Z,3.00
2018-01-21T10:25:14.089Z,3.00
2018-01-21T10:27:42.677Z,3.27
2018-01-21T10:30:10.446Z,3.30
2018-01-21T10:32:38.154Z,3.93
2018-01-21T10:35:05.975Z,3.43
2018-01-21T10:37:33.678Z,3.60
2018-01-21T10:40:02.215Z,3.53
2018-01-21T10:42:29.922Z,3.33
2018-01-21T10:44:58.360Z,3.93
2018-01-21T10:47:26.064Z,3.70
2018-01-21T10:49:53.888Z,3.03
2018-01-21T10:52:22.413Z,4.63
2018-01-21T10:54:50.832Z,4.47
2018-01-21T10:57:18.592Z,3.70
2018-01-21T10:59:46.434Z,3.80
2018-01-21T11:02:14.233Z,3.07
2018-01-21T11:04:42.743Z,3.90
2018-01-21T11:07:10.589Z,4.30
2018-01-21T11:09:39.134Z,3.90
2018-01-21T11:12:07.630Z,4.33
2018-01-21T11:14:36.023Z,4.00
2018-01-21T11:17:03.745Z,3.47
2018-01-21T11:19:31.599Z,3.30
2018-01-21T11:22:00.020Z,3.50
2018-01-21T11:24:27.886Z,3.80
2018-01-21T11:26:56.326Z,3.53
2018-01-21T11:29:24.856Z,3.60
2018-01-21T11:31:53.385Z,2.73
2018-01-21T11:34:22.669Z,3.10
2018-01-21T11:36:50.378Z,3.03
2018-01-21T11:39:18.834Z,3.33
2018-01-21T11:41:46.535Z,3.10
2018-01-21T11:44:14.202Z,2.90
2018-01-21T11:46:43.651Z,3.10
2018-01-21T11:49:13.225Z,3.50
2018-01-21T11:51:42.702Z,3.43
2018-01-21T11:54:10.415Z,3.70
2018-01-21T11:56:39.879Z,3.70
2018-01-21T11:59:07.628Z,3.80
2018-01-21T12:01:38.003Z,4.13
2018-01-21T12:04:07.546Z,4.80
2018-01-21T12:06:35.285Z,4.03
2018-01-21T12:09:03.023Z,4.87
2018-01-21T12:11:30.828Z,3.57
2018-01-21T12:14:00.299Z,4.30
2018-01-21T12:16:28.042Z,4.40
2018-01-21T12:18:58.418Z,4.10
2018-01-21T12:21:26.254Z,4.10
2018-01-21T12:23:54.778Z,3.97
2018-01-21T12:26:22.512Z,4.30
2018-01-21T12:28:54.201Z,4.60
2018-01-21T12:31:22.064Z,4.07
2018-01-21T12:33:49.856Z,4.20
2018-01-21T12:36:17.596Z,3.80
2018-01-21T12:38:45.281Z,4.00
2018-01-21T12:41:12.906Z,4.67
2018-01-21T12:43:40.604Z,4.20
2018-01-21T12:46:08.383Z,4.10
2018-01-21T12:48:36.834Z,5.07
2018-01-21T12:51:04.467Z,4.67
2018-01-21T12:53:32.368Z,5.00
2018-01-21T12:56:00.033Z,4.90
2018-01-21T12:58:27.699Z,4.77
2018-01-21T13:00:55.239Z,5.47
2018-01-21T13:03:22.918Z,4.73
2018-01-21T13:05:50.615Z,4.70
2018-01-21T13:08:19.095Z,4.83
2018-01-21T13:10:48.960Z,4.20
2018-01-21T13:13:16.789Z,4.60
2018-01-21T13:15:44.512Z,4.70
2018-01-21T13:18:14.044Z,4.20
2018-01-21T13:20:43.776Z,4.63
2018-01-21T13:23:11.472Z,4.30
2018-01-21T13:25:39.775Z,4.90
2018-01-21T13:28:07.553Z,6.50
2018-01-21T13:30:37.059Z,5.00
2018-01-21T13:33:04.761Z,5.10
2018-01-21T13:35:32.469Z,5.20
2018-01-21T13:38:00.182Z,5.03
2018-01-21T13:40:27.897Z,5.00
2018-01-21T13:42:55.652Z,5.27
2018-01-21T13:45:23.297Z,4.90
2018-01-21T13:47:50.969Z,6.87
2018-01-21T13:50:18.763Z,4.67
2018-01-21T13:52:48.329Z,5.37
2018-01-21T13:55:16.054Z,5.10
2018-01-21T13:57:43.747Z,5.27
2018-01-21T14:00:12.167Z,5.40
2018-01-21T14:02:39.886Z,5.30
2018-01-21T14:05:08.600Z,5.37
2018-01-21T14:07:36.336Z,6.00
2018-01-21T14:10:04.082Z,4.87
2018-01-21T14:12:33.504Z,5.37
2018-01-21T14:15:01.223Z,5.23
2018-01-21T14:17:28.993Z,4.53
2018-01-21T14:19:58.316Z,4.73
2018-01-21T14:22:27.650Z,4.23
2018-01-21T14:24:55.431Z,4.40
2018-01-21T14:27:23.115Z,4.57
2018-01-21T14:29:50.877Z,4.43
2018-01-21T14:32:18.544Z,4.20
2018-01-21T14:34:47.047Z,4.47
2018-01-21T14:37:15.401Z,4.77
2018-01-21T14:39:43.905Z,4.30
2018-01-21T14:42:11.693Z,4.30
2018-01-21T14:44:41.123Z,4.83
2018-01-21T14:47:09.038Z,4.30
2018-01-21T14:49:36.733Z,4.60
2018-01-21T14:52:06.048Z,5.03
2018-01-21T14:54:33.783Z,5.20
2018-01-21T14:57:01.547Z,5.40
2018-01-21T14:59:29.389Z,4.77
2018-01-21T15:01:58.782Z,5.67
2018-01-21T15:04:26.619Z,4.60
2018-01-21T15:06:56.598Z,4.23
2018-01-21T15:09:24.304Z,4.30
2018-01-21T15:11:52.745Z,4.30
2018-01-21T15:14:20.449Z,4.27
2018-01-21T15:16:48.307Z,4.93
2018-01-21T15:19:16.028Z,5.10
2018-01-21T15:21:44.572Z,4.63
2018-01-21T15:24:12.293Z,4.33
2018-01-21T15:26:40.088Z,5.10
2018-01-21T15:29:08.831Z,6.13
2018-01-21T15:31:37.262Z,7.33
2018-01-21T15:34:04.985Z,8.40
2018-01-21T15:36:32.787Z,5.63
2018-01-21T15:39:00.515Z,5.90
2018-01-21T15:41:28.206Z,5.83
2018-01-21T15:43:55.935Z,5.80
2018-01-21T15:46:23.792Z,4.60
2018-01-21T15:48:51.516Z,5.37
2018-01-21T15:51:19.208Z,4.70
2018-01-21T15:53:49.599Z,5.10
2018-01-21T15:56:18.100Z,4.53
2018-01-21T15:58:47.712Z,4.30
2018-01-21T16:01:18.045Z,4.20
2018-01-21T16:03:45.892Z,3.90
2018-01-21T16:06:13.574Z,3.97
2018-01-21T16:08:41.988Z,3.90
2018-01-21T16:11:09.867Z,4.97
2018-01-21T16:13:37.712Z,5.17
2018-01-21T16:16:05.463Z,5.40
2018-01-21T16:18:36.120Z,4.57
2018-01-21T16:21:04.923Z,4.30
2018-01-21T16:23:32.611Z,4.67
2018-01-21T16:26:00.384Z,4.80
2018-01-21T16:28:32.292Z,3.90
2018-01-21T16:31:00.271Z,4.10
2018-01-21T16:33:28.063Z,3.93
2018-01-21T16:35:56.122Z,3.97
2018-01-21T16:38:35.770Z,4.13
2018-01-21T16:41:03.646Z,5.10
2018-01-21T16:43:31.589Z,4.97
2018-01-21T16:45:59.476Z,4.70
2018-01-21T16:48:27.861Z,3.70
2018-01-21T16:50:55.899Z,4.20
2018-01-21T16:53:23.902Z,5.43
2018-01-21T16:55:51.883Z,5.03
2018-01-21T16:58:19.860Z,5.00
2018-01-21T17:00:48.807Z,4.40
2018-01-21T17:03:17.426Z,4.47
2018-01-21T17:05:45.617Z,4.50
2018-01-21T17:08:16.049Z,5.00
2018-01-21T17:10:43.904Z,5.30
2018-01-21T17:13:11.692Z,5.50
2018-01-21T17:15:42.137Z,5.50
2018-01-21T17:18:10.164Z,7.30
2018-01-21T17:20:38.675Z,7.80
2018-01-21T17:23:07.364Z,8.00
2018-01-21T17:25:36.355Z,7.73
2018-01-21T17:28:05.242Z,8.13
2018-01-21T17:30:33.753Z,6.50
2018-01-21T17:33:03.494Z,7.40
2018-01-21T17:35:34.091Z,8.27
2018-01-21T17:38:04.607Z,6.47
2018-01-21T17:40:35.084Z,6.37
2018-01-21T17:43:05.057Z,6.87
2018-01-21T17:45:33.071Z,7.70
2018-01-21T17:48:00.902Z,7.70
2018-01-21T17:50:28.961Z,7.90
2018-01-21T17:52:58.564Z,7.10
2018-01-21T17:55:28.074Z,7.40
2018-01-21T17:57:55.959Z,7.13
2018-01-21T18:00:24.580Z,7.13
2018-01-21T18:02:52.636Z,6.53
2018-01-21T18:05:21.315Z,7.70
2018-01-21T18:07:50.238Z,7.00
2018-01-21T18:10:18.173Z,8.80
2018-01-21T18:12:46.335Z,10.63
2018-01-21T18:15:14.242Z,10.03
2018-01-21T18:17:42.423Z,10.10
2018-01-21T18:20:10.486Z,10.00
2018-01-21T18:22:38.342Z,8.57
2018-01-21T18:25:06.177Z,9.00
2018-01-21T18:27:34.301Z,8.90
2018-01-21T18:30:02.172Z,8.93
2018-01-21T18:32:30.236Z,9.40
2018-01-21T18:34:58.089Z,8.50
2018-01-21T18:37:28.134Z,8.77
2018-01-21T18:39:56.104Z,8.63
2018-01-21T18:42:25.085Z,8.53
2018-01-21T18:44:54.673Z,8.77
2018-01-21T18:47:23.792Z,9.20
2018-01-21T18:49:52.900Z,9.40
2018-01-21T18:52:21.516Z,9.43
2018-01-21T18:54:49.564Z,9.00
2018-01-21T18:57:17.741Z,9.10
2018-01-21T18:59:46.880Z,11.00
2018-01-21T19:02:16.739Z,12.00
2018-01-21T19:04:46.358Z,10.70
2018-01-21T19:07:14.742Z,9.57
2018-01-21T19:09:42.809Z,10.10
2018-01-21T19:12:10.784Z,10.03
2018-01-21T19:14:38.855Z,10.00
2018-01-21T19:17:06.710Z,10.10
2018-01-21T19:19:34.810Z,11.23
2018-01-21T19:22:03.609Z,11.20
2018-01-21T19:24:35.348Z,11.80
2018-01-21T19:27:04.912Z,11.10
2018-01-21T19:29:35.696Z,10.63
2018-01-21T19:32:03.889Z,10.80
2018-01-21T19:34:31.980Z,12.90
2018-01-21T19:37:00.145Z,11.70
2018-01-21T20:04:04.765Z,11.67
2018-01-21T20:06:34.489Z,8.70
2018-01-21T20:09:03.465Z,9.70
2018-01-21T20:11:31.687Z,10.00
2018-01-21T20:14:01.444Z,10.10
2018-01-21T20:16:31.565Z,12.43
2018-01-21T20:19:01.308Z,14.33
2018-01-21T20:21:29.454Z,13.20
2018-01-21T20:23:57.594Z,12.40
2018-01-21T20:26:27.266Z,12.60
2018-01-21T20:28:56.113Z,11.37
2018-01-21T20:31:24.838Z,11.40
2018-01-21T20:33:55.227Z,11.23
2018-01-21T20:36:23.439Z,10.53
2018-01-21T20:38:51.620Z,11.60
2018-01-21T20:41:23.333Z,10.77
2018-01-21T20:43:55.837Z,11.80
2018-01-21T20:46:24.034Z,11.50
2018-01-21T20:48:52.119Z,10.67
2018-01-21T20:51:28.386Z,10.80
2018-01-21T21:07:50.562Z,10.93
2018-01-21T21:10:18.632Z,10.67
2018-01-21T21:12:46.506Z,11.40
2018-01-21T21:15:14.469Z,10.67
2018-01-21T21:17:43.571Z,8.57
2018-01-21T21:20:11.547Z,9.90
2018-01-21T21:22:39.831Z,9.60
2018-01-21T21:25:08.527Z,12.07
2018-01-21T21:27:38.325Z,10.60
2018-01-21T21:30:07.503Z,10.50
2018-01-21T21:32:37.855Z,10.60
2018-01-21T21:35:05.817Z,9.50
2018-01-21T21:37:33.593Z,9.87
2018-01-21T21:40:03.027Z,8.90
2018-01-21T21:42:30.959Z,9.00
2018-01-21T21:44:58.753Z,9.60
2018-01-21T21:47:26.531Z,8.87
2018-01-21T21:49:54.364Z,9.03
2018-01-21T21:52:23.907Z,8.63
2018-01-21T21:54:51.689Z,9.77
2018-01-21T21:57:19.498Z,9.87
2018-01-21T21:59:49.337Z,8.80
2018-01-21T22:02:17.150Z,9.20
2018-01-21T22:04:44.898Z,9.63
2018-01-21T22:07:14.243Z,8.50
2018-01-21T22:09:41.981Z,9.07
2018-01-21T22:12:09.789Z,7.80
2018-01-21T22:14:37.499Z,9.50
2018-01-21T22:17:05.238Z,9.27
2018-01-21T22:19:32.958Z,9.50
2018-01-21T22:22:00.732Z,9.23
2018-01-21T22:24:28.468Z,10.20
2018-01-21T22:26:58.093Z,9.50
2018-01-21T22:29:26.039Z,9.13
2018-01-21T22:31:55.219Z,9.90
2018-01-21T22:34:24.880Z,9.80
2018-01-21T22:36:52.530Z,10.20
2018-01-21T22:39:21.112Z,9.63
2018-01-21T22:41:50.007Z,8.57
2018-01-21T22:44:19.479Z,9.50
2018-01-21T22:46:47.259Z,8.83
2018-01-21T22:49:15.877Z,8.73
2018-01-21T22:51:43.549Z,10.80
2018-01-21T22:54:11.251Z,11.30
2018-01-21T22:56:40.741Z,9.80
2018-01-21T22:59:08.479Z,9.17
2018-01-21T23:01:36.200Z,10.10
2018-01-21T23:04:04.180Z,10.60
2018-01-21T23:06:33.810Z,9.70
2018-01-21T23:09:01.699Z,9.40
2018-01-21T23:11:29.605Z,11.13
2018-01-21T23:13:57.908Z,10.27
2018-01-21T23:16:27.278Z,11.50
2018-01-21T23:18:54.972Z,11.50
2018-01-21T23:21:22.784Z,11.90
2018-01-21T23:23:50.538Z,11.77
2018-01-21T23:26:18.258Z,12.90
2018-01-21T23:28:45.982Z,12.93
2018-01-21T23:31:13.822Z,11.83
2018-01-21T23:33:41.548Z,11.50
2018-01-21T23:36:10.084Z,10.83
2018-01-21T23:38:38.588Z,9.80
2018-01-21T23:41:06.264Z,12.57
2018-01-21T23:43:34.149Z,13.07
2018-01-21T23:46:02.711Z,12.33
2018-01-21T23:48:32.318Z,11.50
2018-01-21T23:51:00.102Z,12.00
2018-01-21T23:53:28.516Z,12.60
2018-01-21T23:55:56.209Z,13.87
2018-01-21T23:58:24.008Z,13.70
